Terminal Aerodrome Forecast
Issued by NWS Omaha/Valley, NE

Home | Current Version | Previous Version | Graphics & Text | Print | Product List | Glossary On
Versions: 1 2 3 4 5 6 7 8 9 10 11 12 13 14 15 16 17 18 19 20 21 22 23 24 25 26 27 28 29 30 31 32 33 34 35 36 37 38 39 40 41 42 43
000
FTUS43 KOAX 270621 AAA
TAFOFK
TAF AMD
KOFK 270621Z 2706/2806 34005KT P6SM BKN050
      TEMPO 2709/2712 BKN025
     FM271200 03005KT P6SM BKN025
     FM271500 13005KT P6SM SCT015 BKN050
     FM271800 17012KT P6SM SCT015 BKN090=

USA.gov is the U.S. government's official web portal to all federal, state and local government web resources and services.